Time;durP1;ratioP1;P1;durP2;ratioP2;P2;SDS_P1;SDS_P2;PMS_P1;PMS_P2;Temp;Humidity;BMP_temperature;BMP_pressure;BME280_temperature;BME280_humidity;BME280_pressure;Samples;Min_cycle;Max_cycle;Signal;HPM_P1;HPM_P2
2021/06/14 07:00:17;;;;;;;13.68;5.40;;;23.20;93.10;;;;;;4991350;28;20073;-69
2021/06/14 07:02:42;;;;;;;12.35;5.10;;;23.40;93.00;;;;;;4998605;28;20433;-65
2021/06/14 07:05:09;;;;;;;12.38;5.60;;;23.40;93.00;;;;;;5001304;28;20029;-67
2021/06/14 07:07:34;;;;;;;13.52;5.55;;;23.30;93.00;;;;;;5011738;28;20220;-67
2021/06/14 07:10:04;;;;;;;14.00;5.57;;;23.30;93.00;;;;;;5014772;28;20530;-66
2021/06/14 07:12:32;;;;;;;10.95;5.78;;;23.30;93.10;;;;;;5014895;28;20038;-66
2021/06/14 07:14:57;;;;;;;10.93;5.03;;;23.40;93.10;;;;;;5013955;28;20490;-66
2021/06/14 07:17:23;;;;;;;9.88;4.38;;;23.40;93.00;;;;;;5014447;28;20092;-65
2021/06/14 07:19:48;;;;;;;10.02;4.65;;;23.40;92.80;;;;;;5013472;28;20025;-67
2021/06/14 07:22:14;;;;;;;7.60;4.15;;;23.60;92.70;;;;;;5013719;28;20028;-66
2021/06/14 07:24:40;;;;;;;9.43;3.85;;;23.60;92.60;;;;;;5014162;28;20480;-68
2021/06/14 07:27:05;;;;;;;9.05;3.92;;;23.60;92.50;;;;;;5014387;28;20429;-68
2021/06/14 07:29:31;;;;;;;8.50;4.38;;;23.70;92.50;;;;;;5014313;28;20030;-65
2021/06/14 07:31:58;;;;;;;7.95;4.15;;;23.70;92.40;;;;;;5011121;28;20023;-65
2021/06/14 07:34:24;;;;;;;7.97;3.75;;;23.70;92.40;;;;;;4998903;28;20031;-66
2021/06/14 07:36:51;;;;;;;9.23;4.25;;;23.70;92.40;;;;;;4994178;28;20486;-64
2021/06/14 07:39:17;;;;;;;6.95;3.80;;;23.70;92.40;;;;;;4994676;28;20033;-64
2021/06/14 07:41:42;;;;;;;7.25;3.80;;;23.80;92.40;;;;;;4994352;28;20482;-64
2021/06/14 07:44:08;;;;;;;6.78;3.75;;;23.70;92.40;;;;;;5010906;28;20034;-64
2021/06/14 07:46:34;;;;;;;8.20;4.35;;;23.70;92.40;;;;;;5013350;28;20061;-64
2021/06/14 07:49:00;;;;;;;5.53;3.38;;;23.80;92.40;;;;;;5014241;28;20056;-64
2021/06/14 07:51:27;;;;;;;7.25;4.10;;;23.90;92.30;;;;;;5013875;28;20105;-67
2021/06/14 07:53:53;;;;;;;9.90;4.30;;;23.80;92.30;;;;;;5013651;28;20034;-69
2021/06/14 07:56:19;;;;;;;6.22;3.80;;;23.80;92.40;;;;;;5013898;28;20128;-69
2021/06/14 07:58:48;;;;;;;6.35;3.67;;;23.80;92.40;;;;;;5013556;28;20056;-67
2021/06/14 08:01:14;;;;;;;5.90;3.90;;;23.80;92.40;;;;;;5013644;28;20096;-65
2021/06/14 08:03:40;;;;;;;5.82;3.30;;;23.80;92.40;;;;;;5013031;28;20047;-65
2021/06/14 08:06:07;;;;;;;6.97;3.92;;;23.80;92.40;;;;;;5013744;28;20022;-64
2021/06/14 08:08:33;;;;;;;6.20;4.25;;;23.80;92.40;;;;;;5013441;28;20033;-65
2021/06/14 08:11:00;;;;;;;6.63;3.63;;;23.90;92.40;;;;;;5014877;28;20026;-64
2021/06/14 08:13:27;;;;;;;6.72;3.90;;;23.90;92.40;;;;;;5001634;28;20394;-65
2021/06/14 08:15:53;;;;;;;6.63;3.53;;;23.80;92.40;;;;;;5000447;28;20034;-65
2021/06/14 08:26:13;;;;;;;6.20;3.40;;;24.00;92.40;;;;;;5013351;28;20037;-65
2021/06/14 08:28:39;;;;;;;6.50;3.22;;;23.90;92.40;;;;;;5012976;28;20385;-65
2021/06/14 08:31:04;;;;;;;5.15;3.45;;;23.90;92.30;;;;;;5013170;28;20381;-64
2021/06/14 08:33:31;;;;;;;5.93;3.42;;;24.00;92.40;;;;;;5013236;28;20470;-65
2021/06/14 08:35:57;;;;;;;4.85;3.20;;;24.00;92.40;;;;;;5013395;28;20030;-64
2021/06/14 08:38:23;;;;;;;4.85;3.13;;;24.00;92.40;;;;;;5013024;28;20041;-67
2021/06/14 08:40:49;;;;;;;5.47;3.22;;;24.00;92.40;;;;;;5012723;28;20029;-65
2021/06/14 08:43:15;;;;;;;4.75;3.50;;;24.00;92.40;;;;;;5002826;28;20022;-64
2021/06/14 08:45:42;;;;;;;5.47;3.28;;;24.00;92.40;;;;;;4992985;28;20415;-65
2021/06/14 08:48:10;;;;;;;6.32;3.30;;;24.00;92.40;;;;;;5007575;28;20042;-64
2021/06/14 08:50:37;;;;;;;4.95;3.25;;;24.00;92.40;;;;;;5009118;28;20029;-63
2021/06/14 08:53:04;;;;;;;5.93;3.63;;;24.00;92.40;;;;;;5010862;28;20038;-64
2021/06/14 08:55:31;;;;;;;4.18;3.10;;;24.00;92.40;;;;;;5012631;28;20342;-63
2021/06/14 08:57:57;;;;;;;4.43;3.47;;;24.10;92.30;;;;;;5012600;28;20030;-65
2021/06/14 09:00:28;;;;;;;5.07;3.28;;;24.10;92.40;;;;;;5012551;28;20186;-64
2021/06/14 09:02:55;;;;;;;4.45;2.97;;;24.10;92.50;;;;;;5012347;28;20069;-64
2021/06/14 09:05:23;;;;;;;5.70;3.40;;;24.10;92.50;;;;;;5012177;28;20022;-65
2021/06/14 09:07:51;;;;;;;4.38;3.00;;;24.10;92.50;;;;;;5012338;28;20025;-67
2021/06/14 09:10:24;;;;;;;3.70;3.08;;;24.10;92.80;;;;;;5012498;28;20040;-64
2021/06/14 09:12:50;;;;;;;5.18;3.00;;;24.10;92.50;;;;;;5012102;28;20425;-63
2021/06/14 09:15:16;;;;;;;4.25;2.92;;;24.10;92.50;;;;;;5010541;28;20033;-64
2021/06/14 09:17:52;;;;;;;3.90;2.90;;;24.10;92.50;;;;;;5012184;28;20059;-68
2021/06/14 09:20:17;;;;;;;4.35;3.10;;;24.10;92.50;;;;;;5012018;28;20037;-64
2021/06/14 09:22:43;;;;;;;5.78;2.95;;;24.10;92.50;;;;;;5012104;28;20034;-63
2021/06/14 09:25:13;;;;;;;5.35;3.30;;;24.10;92.60;;;;;;5011797;28;20112;-64
2021/06/14 09:27:45;;;;;;;4.78;3.00;;;24.10;92.60;;;;;;5011527;28;20037;-68
2021/06/14 09:30:14;;;;;;;5.47;3.13;;;24.10;92.60;;;;;;5012206;28;20436;-69
2021/06/14 09:33:03;;;;;;;3.70;2.88;;;24.10;92.60;;;;;;5011915;28;20029;-69
2021/06/14 09:35:34;;;;;;;4.22;2.78;;;24.10;92.50;;;;;;5012570;28;20084;-72
2021/06/14 09:38:07;;;;;;;4.22;2.90;;;24.20;92.60;;;;;;5012341;28;20049;-68
2021/06/14 09:40:48;;;;;;;5.03;2.85;;;24.20;92.60;;;;;;5011432;28;20072;-69
2021/06/14 09:43:35;;;;;;;4.18;2.83;;;24.20;92.60;;;;;;4991192;28;20039;-64
2021/06/14 09:46:04;;;;;;;5.38;3.22;;;24.20;92.60;;;;;;5001935;28;20501;-65
2021/06/14 09:48:31;;;;;;;3.97;3.05;;;24.20;92.60;;;;;;5006348;28;20030;-66
2021/06/14 09:51:05;;;;;;;4.90;3.30;;;24.20;92.60;;;;;;5008257;28;20025;-64
2021/06/14 09:53:37;;;;;;;3.67;2.92;;;24.20;92.90;;;;;;5012183;28;20092;-70
2021/06/14 09:56:22;;;;;;;4.25;2.80;;;24.20;92.60;;;;;;5011779;28;20113;-69
2021/06/14 09:58:51;;;;;;;3.85;2.63;;;24.20;92.60;;;;;;5011632;28;20034;-67
2021/06/14 10:01:31;;;;;;;3.05;2.70;;;24.20;92.60;;;;;;5011408;28;20080;-68
2021/06/14 10:03:58;;;;;;;3.88;3.15;;;24.20;92.60;;;;;;4991940;28;20044;-62
2021/06/14 10:06:42;;;;;;;4.70;2.97;;;24.20;92.60;;;;;;4992172;28;20103;-63
2021/06/14 10:09:13;;;;;;;3.75;2.70;;;24.30;92.60;;;;;;4992137;28;20034;-64
2021/06/14 10:11:40;;;;;;;4.30;2.97;;;24.30;92.70;;;;;;4991767;28;20027;-65
2021/06/14 10:14:14;;;;;;;3.50;2.90;;;24.30;92.70;;;;;;4992033;28;20030;-65
2021/06/14 10:16:46;;;;;;;4.13;2.65;;;24.30;92.60;;;;;;5005595;28;20512;-66
2021/06/14 10:19:13;;;;;;;4.60;2.90;;;24.30;92.60;;;;;;4991843;28;20042;-68
2021/06/14 10:21:45;;;;;;;3.40;2.60;;;24.40;92.70;;;;;;4991703;28;20113;-64
2021/06/14 10:24:16;;;;;;;3.70;2.63;;;24.40;92.70;;;;;;4992159;28;20105;-66
2021/06/14 10:26:52;;;;;;;4.72;3.00;;;24.40;92.70;;;;;;4991764;28;20109;-66
2021/06/14 10:29:18;;;;;;;3.95;2.78;;;24.40;92.70;;;;;;4991947;28;20097;-65
2021/06/14 10:31:47;;;;;;;3.58;2.88;;;24.40;92.60;;;;;;4991610;28;20088;-65
2021/06/14 10:34:14;;;;;;;4.18;2.70;;;24.40;92.50;;;;;;4991835;28;20018;-64
2021/06/14 10:36:44;;;;;;;4.13;2.60;;;24.40;92.50;;;;;;4991595;28;20462;-64
2021/06/14 10:39:11;;;;;;;4.63;2.95;;;24.50;92.50;;;;;;4992850;28;20117;-64
2021/06/14 10:41:36;;;;;;;3.58;2.58;;;24.50;92.50;;;;;;5004459;28;20024;-64
2021/06/14 10:44:05;;;;;;;4.32;2.90;;;24.50;92.60;;;;;;5013866;28;20030;-65
2021/06/14 10:46:32;;;;;;;3.90;2.80;;;24.50;92.60;;;;;;4999796;28;20037;-63
2021/06/14 10:49:01;;;;;;;3.70;2.40;;;24.50;92.60;;;;;;4995716;28;20026;-65
2021/06/14 10:51:32;;;;;;;3.80;2.45;;;24.60;92.50;;;;;;4995706;28;20109;-64
2021/06/14 10:54:09;;;;;;;3.38;2.70;;;24.60;92.50;;;;;;4995615;28;20080;-64
2021/06/14 10:56:35;;;;;;;3.45;2.50;;;24.60;92.50;;;;;;4994949;28;20033;-69
2021/06/14 10:59:07;;;;;;;4.03;2.45;;;24.60;92.50;;;;;;4995776;28;20038;-68
2021/06/14 11:01:35;;;;;;;4.15;2.42;;;24.70;92.50;;;;;;4998113;28;20382;-68
2021/06/14 11:04:02;;;;;;;3.85;2.55;;;24.70;92.60;;;;;;5014713;28;20038;-68
2021/06/14 11:06:33;;;;;;;2.78;1.95;;;24.70;92.50;;;;;;5004233;28;20030;-69
2021/06/14 11:09:03;;;;;;;3.78;2.33;;;24.70;92.50;;;;;;5014957;28;20155;-67
2021/06/14 11:11:30;;;;;;;4.07;2.35;;;24.70;92.80;;;;;;5014599;28;20393;-65
2021/06/14 11:13:56;;;;;;;2.65;2.38;;;24.70;92.70;;;;;;5013943;28;20109;-65
2021/06/14 11:16:23;;;;;;;3.72;2.20;;;24.70;92.80;;;;;;4998040;28;20161;-65
2021/06/14 11:19:00;;;;;;;3.55;2.03;;;24.70;92.80;;;;;;5003121;28;20030;-65
2021/06/14 11:21:26;;;;;;;2.95;2.35;;;24.70;92.80;;;;;;5014334;28;20030;-63
2021/06/14 11:23:53;;;;;;;3.50;2.10;;;24.70;92.80;;;;;;5014066;28;20038;-64
2021/06/14 11:26:30;;;;;;;3.95;2.50;;;24.70;92.90;;;;;;5014365;28;20077;-65
2021/06/14 11:28:56;;;;;;;3.47;2.50;;;24.70;92.80;;;;;;5014047;28;20583;-67
2021/06/14 11:31:27;;;;;;;2.90;2.28;;;24.70;93.20;;;;;;5014119;28;20504;-65
2021/06/14 11:33:58;;;;;;;3.63;2.75;;;24.70;93.00;;;;;;5014137;28;20393;-64
2021/06/14 11:36:29;;;;;;;5.60;3.92;;;24.70;92.90;;;;;;5013976;28;20021;-65
2021/06/14 11:38:58;;;;;;;4.63;3.15;;;24.70;92.90;;;;;;5013442;28;20029;-67
2021/06/14 11:41:34;;;;;;;3.53;3.17;;;24.70;92.80;;;;;;5012696;28;20054;-67
2021/06/14 11:44:19;;;;;;;4.60;3.22;;;24.70;92.80;;;;;;5014344;28;20070;-69
2021/06/14 11:46:45;;;;;;;4.35;3.17;;;24.70;92.90;;;;;;5004173;28;20655;-65
2021/06/14 11:49:11;;;;;;;3.58;3.00;;;24.80;92.90;;;;;;5001760;28;20470;-64
2021/06/14 11:51:38;;;;;;;5.30;2.67;;;24.80;93.20;;;;;;5002589;28;20026;-65
2021/06/14 11:54:06;;;;;;;4.85;3.00;;;24.80;92.90;;;;;;5012245;28;20088;-64
2021/06/14 11:56:35;;;;;;;3.50;3.03;;;24.80;93.00;;;;;;5013964;28;20022;-65
2021/06/14 11:59:02;;;;;;;4.15;2.92;;;24.80;92.90;;;;;;5014238;28;20089;-67
2021/06/14 12:01:33;;;;;;;3.78;3.10;;;24.90;93.00;;;;;;5013002;28;20030;-64
2021/06/14 12:04:01;;;;;;;4.20;3.08;;;24.90;92.90;;;;;;5014046;28;20440;-68
2021/06/14 12:06:27;;;;;;;4.18;2.83;;;24.90;92.90;;;;;;5013632;28;20634;-64
2021/06/14 12:09:05;;;;;;;4.55;3.10;;;24.90;92.90;;;;;;5013297;28;20436;-65
2021/06/14 12:11:30;;;;;;;3.53;2.67;;;25.00;92.90;;;;;;4996467;28;20030;-65
2021/06/14 12:13:56;;;;;;;3.53;2.67;;;25.00;93.10;;;;;;5007298;28;20030;-65
2021/06/14 12:16:25;;;;;;;4.47;3.08;;;25.00;93.10;;;;;;5013272;28;20424;-64
2021/06/14 12:19:00;;;;;;;3.65;2.83;;;25.10;93.00;;;;;;5013169;28;20104;-64
2021/06/14 12:21:25;;;;;;;3.20;2.90;;;25.10;93.10;;;;;;5013507;28;20030;-64
2021/06/14 12:23:51;;;;;;;3.08;2.50;;;25.10;93.00;;;;;;5013127;28;20036;-65
2021/06/14 12:26:16;;;;;;;3.25;2.67;;;25.10;93.10;;;;;;5013171;28;20046;-67
2021/06/14 12:28:43;;;;;;;3.35;2.90;;;25.10;93.10;;;;;;5013024;28;20105;-69
2021/06/14 12:31:13;;;;;;;4.15;2.80;;;25.10;93.10;;;;;;5013196;28;20493;-68
2021/06/14 12:33:42;;;;;;;4.25;2.67;;;25.20;93.20;;;;;;5012716;28;20413;-67
2021/06/14 12:36:11;;;;;;;3.15;2.58;;;25.20;93.20;;;;;;5013125;28;20551;-68
2021/06/14 12:38:37;;;;;;;3.50;2.70;;;25.30;93.20;;;;;;5012646;28;20449;-66
2021/06/14 12:41:04;;;;;;;3.20;2.55;;;25.30;93.30;;;;;;5011198;28;20029;-65
2021/06/14 12:43:34;;;;;;;3.50;2.60;;;25.30;93.30;;;;;;5013108;28;20080;-68
2021/06/14 12:46:00;;;;;;;4.88;3.10;;;25.30;93.30;;;;;;5013324;28;20029;-68
2021/06/14 12:48:26;;;;;;;3.83;2.72;;;25.30;93.30;;;;;;5012867;28;20385;-67
2021/06/14 12:50:54;;;;;;;3.40;2.60;;;25.30;93.40;;;;;;5012601;28;20556;-67
2021/06/14 12:53:23;;;;;;;3.38;2.78;;;25.40;93.40;;;;;;5011424;28;20026;-67
2021/06/14 12:55:51;;;;;;;4.35;2.67;;;25.40;93.50;;;;;;5006108;28;20076;-67
2021/06/14 12:58:22;;;;;;;3.00;2.40;;;25.40;93.50;;;;;;5012564;28;20038;-67
2021/06/14 13:01:02;;;;;;;3.03;2.70;;;25.50;93.50;;;;;;5012345;28;20390;-66
2021/06/14 13:03:32;;;;;;;3.63;2.50;;;25.50;93.40;;;;;;5012176;28;20018;-66
2021/06/14 13:05:58;;;;;;;4.05;2.58;;;25.50;93.50;;;;;;5012814;28;20707;-66
2021/06/14 13:08:45;;;;;;;3.97;2.65;;;25.50;93.50;;;;;;5012457;28;20069;-68
2021/06/14 13:11:12;;;;;;;3.25;2.70;;;25.60;93.60;;;;;;5011646;28;20022;-66
2021/06/14 13:13:46;;;;;;;3.75;2.60;;;25.60;93.40;;;;;;5012252;28;20053;-66
2021/06/14 13:16:20;;;;;;;3.88;2.50;;;25.60;93.60;;;;;;5012270;28;20022;-65
2021/06/14 13:19:00;;;;;;;3.72;2.50;;;25.60;93.60;;;;;;5008530;28;20034;-64
2021/06/14 13:21:32;;;;;;;3.15;2.42;;;25.60;93.60;;;;;;5012247;28;20061;-68
2021/06/14 13:24:03;;;;;;;4.82;2.58;;;25.70;93.70;;;;;;5012507;28;20034;-68
2021/06/14 13:26:48;;;;;;;2.88;2.50;;;25.70;93.80;;;;;;5012416;28;20156;-65
2021/06/14 13:29:25;;;;;;;3.65;2.60;;;25.70;93.70;;;;;;5012177;28;20029;-66
2021/06/14 13:35:15;;;;;;;2.97;2.45;;;25.70;93.70;;;;;;4970856;28;20430;-67
2021/06/14 13:37:46;;;;;;;3.08;2.20;;;25.80;93.80;;;;;;4970655;28;20047;-66
2021/06/14 13:40:39;;;;;;;3.13;2.33;;;25.80;93.80;;;;;;4983755;28;20474;-68
2021/06/14 13:43:05;;;;;;;2.67;2.40;;;25.80;93.90;;;;;;5008117;28;20438;-67
2021/06/14 13:45:35;;;;;;;4.15;2.40;;;25.70;93.90;;;;;;5012133;28;20057;-66
2021/06/14 13:48:07;;;;;;;3.03;2.25;;;25.80;93.90;;;;;;5011349;28;20030;-68
2021/06/14 13:50:41;;;;;;;3.47;2.50;;;25.80;93.90;;;;;;5001912;28;20030;-65
2021/06/14 13:53:13;;;;;;;3.25;2.40;;;25.90;93.90;;;;;;4994948;28;20034;-65
2021/06/14 13:55:53;;;;;;;2.70;2.20;;;25.90;93.90;;;;;;5011470;28;20482;-66
2021/06/14 13:58:30;;;;;;;3.40;2.58;;;25.90;93.90;;;;;;5011732;28;20045;-66
2021/06/14 14:01:17;;;;;;;3.42;2.17;;;25.90;93.90;;;;;;5011487;28;20125;-67
2021/06/14 14:03:44;;;;;;;3.17;2.58;;;25.90;93.90;;;;;;5006647;28;20448;-68
2021/06/14 14:06:10;;;;;;;3.10;2.10;;;25.90;93.90;;;;;;5002560;28;20057;-67
2021/06/14 14:08:37;;;;;;;3.20;2.33;;;26.00;94.00;;;;;;5011441;28;20044;-68
2021/06/14 14:11:03;;;;;;;3.28;2.30;;;26.00;94.00;;;;;;5011820;28;20421;-68
2021/06/14 14:13:29;;;;;;;3.10;2.20;;;26.00;94.10;;;;;;5013180;28;20551;-70
2021/06/14 14:15:55;;;;;;;2.30;2.03;;;26.00;94.20;;;;;;5015460;28;20051;-68
2021/06/14 14:18:22;;;;;;;2.88;2.00;;;26.10;94.10;;;;;;5014988;28;20034;-69
2021/06/14 14:20:48;;;;;;;4.28;2.40;;;26.10;94.20;;;;;;5014717;28;20467;-69
2021/06/14 14:23:14;;;;;;;3.00;2.05;;;26.10;94.20;;;;;;5014102;28;20088;-68
2021/06/14 14:25:40;;;;;;;3.53;2.20;;;26.10;94.30;;;;;;5015288;28;20112;-68
2021/06/14 14:28:06;;;;;;;3.28;2.20;;;26.10;94.40;;;;;;5015399;28;20022;-69
2021/06/14 14:30:38;;;;;;;2.88;2.03;;;26.10;94.30;;;;;;5012136;28;20026;-69
2021/06/14 14:33:04;;;;;;;3.17;2.15;;;26.10;94.80;;;;;;5015446;28;20772;-67
2021/06/14 14:35:59;;;;;;;3.38;2.28;;;26.20;94.50;;;;;;5015489;28;20472;-67
2021/06/14 14:38:25;;;;;;;2.75;2.00;;;26.20;94.40;;;;;;5015335;28;20041;-68
2021/06/14 14:40:51;;;;;;;2.85;2.00;;;26.20;94.50;;;;;;5015111;28;20487;-67
2021/06/14 14:43:17;;;;;;;2.88;1.98;;;26.20;94.60;;;;;;5015241;28;20385;-70
2021/06/14 14:45:44;;;;;;;2.65;1.85;;;26.20;94.60;;;;;;5015064;28;20030;-71
2021/06/14 14:48:11;;;;;;;3.35;2.30;;;26.30;94.40;;;;;;5010894;28;20037;-67
2021/06/14 14:50:40;;;;;;;2.10;1.77;;;26.30;94.60;;;;;;4995321;28;20037;-68
2021/06/14 14:53:06;;;;;;;3.63;2.28;;;26.30;94.50;;;;;;4994108;28;20022;-68
2021/06/14 14:55:33;;;;;;;2.40;1.95;;;26.40;94.40;;;;;;5012421;28;20028;-67
2021/06/14 14:58:01;;;;;;;3.08;2.10;;;26.40;94.60;;;;;;5015143;28;20049;-71
2021/06/14 15:00:27;;;;;;;2.20;1.77;;;26.40;94.60;;;;;;5013408;28;20062;-67
2021/06/14 15:02:53;;;;;;;2.67;1.80;;;26.40;94.50;;;;;;5014413;28;20100;-68
2021/06/14 15:05:20;;;;;;;3.55;1.98;;;26.40;94.40;;;;;;5014878;28;20044;-66
2021/06/14 15:07:46;;;;;;;2.88;2.13;;;26.40;94.50;;;;;;5014444;28;20022;-70
2021/06/14 15:10:14;;;;;;;2.28;2.00;;;26.50;94.60;;;;;;5014667;28;20018;-68
2021/06/14 15:12:40;;;;;;;3.20;1.83;;;26.50;94.60;;;;;;5014235;28;20037;-69
2021/06/14 15:15:08;;;;;;;2.05;1.67;;;26.50;94.60;;;;;;5014551;28;20084;-67
2021/06/14 15:17:39;;;;;;;3.75;2.15;;;26.50;94.60;;;;;;5014402;28;20061;-68
2021/06/14 15:20:07;;;;;;;2.28;1.90;;;26.60;94.60;;;;;;5013493;28;20385;-69
2021/06/14 15:22:33;;;;;;;2.20;2.00;;;26.50;94.40;;;;;;4998636;28;20042;-66
2021/06/14 15:24:59;;;;;;;2.30;2.00;;;26.60;94.60;;;;;;4994260;28;20470;-70
2021/06/14 15:27:25;;;;;;;2.75;1.83;;;26.60;94.50;;;;;;4994815;28;20033;-69
2021/06/14 15:29:50;;;;;;;2.30;1.80;;;26.60;94.50;;;;;;4994422;28;20023;-67
2021/06/14 15:32:16;;;;;;;3.35;2.13;;;26.60;94.60;;;;;;4994744;28;20058;-67
2021/06/14 15:34:42;;;;;;;3.97;1.90;;;26.60;94.70;;;;;;4994469;28;20026;-69
2021/06/14 15:37:09;;;;;;;2.22;1.70;;;26.70;94.70;;;;;;5011282;28;20527;-68
2021/06/14 15:39:36;;;;;;;2.55;2.00;;;26.70;94.70;;;;;;5013893;28;20041;-70
2021/06/14 15:42:02;;;;;;;2.63;1.65;;;26.70;94.90;;;;;;5014149;28;20441;-67
2021/06/14 15:44:28;;;;;;;2.15;1.65;;;26.70;94.80;;;;;;5014244;28;20110;-69
2021/06/14 15:46:53;;;;;;;2.15;1.70;;;26.70;94.90;;;;;;5013934;28;20112;-69
2021/06/14 15:49:19;;;;;;;2.75;2.00;;;26.70;95.00;;;;;;5000504;28;20114;-68
2021/06/14 15:51:45;;;;;;;2.38;1.90;;;26.80;95.00;;;;;;5001959;28;20030;-68
2021/06/14 15:54:10;;;;;;;3.05;2.08;;;26.80;95.10;;;;;;5013824;28;20026;-69
2021/06/14 15:56:36;;;;;;;2.58;1.88;;;26.80;95.10;;;;;;5006862;28;20634;-68
2021/06/14 15:59:05;;;;;;;2.72;1.85;;;26.70;95.00;;;;;;5012143;28;20049;-64
2021/06/14 16:01:31;;;;;;;2.40;1.52;;;26.70;95.10;;;;;;5013372;28;20528;-68
2021/06/14 16:03:57;;;;;;;2.72;2.03;;;26.80;95.10;;;;;;5013950;28;20024;-68
2021/06/14 16:06:23;;;;;;;3.17;1.80;;;26.80;95.10;;;;;;5013645;28;20106;-71
2021/06/14 16:08:54;;;;;;;2.00;1.80;;;26.80;95.20;;;;;;5013346;28;20030;-68
2021/06/14 16:11:24;;;;;;;1.67;1.55;;;26.80;95.10;;;;;;5013275;28;20059;-65
2021/06/14 16:13:54;;;;;;;1.73;1.63;;;26.80;95.30;;;;;;5012493;28;20065;-65
2021/06/14 16:16:20;;;;;;;2.53;1.60;;;26.80;95.20;;;;;;5012984;28;20022;-65
2021/06/14 16:18:46;;;;;;;2.15;1.80;;;26.80;95.20;;;;;;4995369;28;20041;-66
2021/06/14 16:21:12;;;;;;;2.15;1.88;;;26.90;95.30;;;;;;4993197;28;20031;-66
2021/06/14 16:23:38;;;;;;;2.78;1.50;;;26.80;95.20;;;;;;4993382;28;20381;-66
2021/06/14 16:26:04;;;;;;;2.05;1.70;;;26.80;95.30;;;;;;4993711;28;20030;-66
2021/06/14 16:28:30;;;;;;;2.83;1.95;;;26.80;95.30;;;;;;4993753;28;20385;-65
2021/06/14 16:30:55;;;;;;;2.92;1.70;;;26.80;95.20;;;;;;4994283;28;20033;-66
2021/06/14 16:33:21;;;;;;;2.13;1.65;;;26.80;95.20;;;;;;5002040;28;20108;-65
2021/06/14 16:35:47;;;;;;;2.80;1.98;;;26.80;95.20;;;;;;5012331;28;20021;-69
2021/06/14 16:38:13;;;;;;;3.67;2.22;;;26.90;94.70;;;;;;5010772;28;20038;-73
2021/06/14 16:40:39;;;;;;;6.20;2.83;;;27.00;94.30;;;;;;5011083;28;20033;-69
2021/06/14 16:43:04;;;;;;;6.57;3.40;;;27.00;93.50;;;;;;5012573;28;20026;-69
2021/06/14 16:45:30;;;;;;;8.73;3.65;;;27.10;92.70;;;;;;5003769;28;20496;-72
2021/06/14 16:48:00;;;;;;;6.93;3.65;;;27.10;92.20;;;;;;5001518;28;20046;-73
2021/06/14 16:50:26;;;;;;;6.78;3.70;;;27.10;92.00;;;;;;5002630;28;20035;-69
2021/06/14 16:52:54;;;;;;;8.63;3.55;;;27.10;92.10;;;;;;4999772;28;20044;-68
2021/06/14 16:55:20;;;;;;;7.80;3.75;;;27.10;92.10;;;;;;5004038;28;20026;-68
2021/06/14 16:57:46;;;;;;;11.32;4.03;;;27.00;92.10;;;;;;4992873;28;20022;-69
2021/06/14 17:00:14;;;;;;;8.00;3.50;;;27.10;91.90;;;;;;5001830;28;20040;-69
2021/06/14 17:02:42;;;;;;;6.30;3.70;;;27.00;91.70;;;;;;5011175;28;20034;-69
2021/06/14 17:05:09;;;;;;;9.73;3.80;;;27.00;92.00;;;;;;5010389;28;20026;-66
2021/06/14 17:07:35;;;;;;;6.90;3.55;;;26.90;92.30;;;;;;5011415;28;20026;-69
2021/06/14 17:10:02;;;;;;;8.30;3.42;;;26.90;92.00;;;;;;5008089;28;20029;-68
2021/06/14 17:12:27;;;;;;;7.07;3.20;;;26.90;92.50;;;;;;4994835;28;20042;-69
2021/06/14 17:14:53;;;;;;;9.18;3.35;;;26.90;92.70;;;;;;4992491;28;20022;-70
2021/06/14 17:17:19;;;;;;;5.45;3.25;;;27.00;92.30;;;;;;4992747;28;20367;-68
2021/06/14 17:19:45;;;;;;;7.07;3.25;;;27.00;92.00;;;;;;4999000;28;20087;-65
2021/06/14 17:22:11;;;;;;;6.90;3.00;;;27.00;91.90;;;;;;5004374;28;20469;-66
2021/06/14 17:24:37;;;;;;;6.50;3.17;;;27.10;92.30;;;;;;5010119;28;20046;-67
2021/06/14 17:27:05;;;;;;;6.05;3.28;;;27.20;90.80;;;;;;5008995;28;20026;-64
2021/06/14 17:29:30;;;;;;;8.73;3.67;;;27.10;90.70;;;;;;5009065;28;20105;-66
2021/06/14 17:31:56;;;;;;;5.25;2.95;;;27.10;90.70;;;;;;4995618;28;20186;-68
2021/06/14 17:34:22;;;;;;;6.28;3.38;;;27.10;90.90;;;;;;4992436;28;20030;-67
2021/06/14 17:36:47;;;;;;;6.28;3.22;;;27.20;90.90;;;;;;5003383;28;20512;-70
2021/06/14 17:39:13;;;;;;;5.70;3.33;;;27.10;90.90;;;;;;5012064;28;20029;-67
2021/06/14 17:41:39;;;;;;;7.80;3.55;;;27.10;91.20;;;;;;5002436;28;20026;-69
2021/06/14 17:44:05;;;;;;;6.10;3.42;;;27.10;91.00;;;;;;4992392;28;20031;-70
2021/06/14 17:46:31;;;;;;;8.68;4.70;;;27.10;90.90;;;;;;4992780;28;20018;-68
2021/06/14 17:48:59;;;;;;;9.68;4.78;;;27.00;90.80;;;;;;5008524;28;20398;-66
2021/06/14 17:51:24;;;;;;;10.30;4.05;;;27.00;90.90;;;;;;5012118;28;20052;-65
2021/06/14 17:54:04;;;;;;;8.68;4.00;;;27.00;90.90;;;;;;5010437;28;20435;-67
2021/06/14 17:56:30;;;;;;;6.22;3.50;;;26.90;90.40;;;;;;4997341;28;20520;-68
2021/06/14 17:58:56;;;;;;;7.07;3.35;;;26.80;90.50;;;;;;5001406;28;20050;-69
2021/06/14 18:01:22;;;;;;;7.82;3.33;;;26.80;90.90;;;;;;5011680;28;20029;-67
2021/06/14 18:03:47;;;;;;;9.32;3.83;;;26.80;90.80;;;;;;5011622;28;20034;-67
2021/06/14 18:06:13;;;;;;;8.68;3.38;;;26.80;90.90;;;;;;5010538;28;20018;-64
2021/06/14 18:08:38;;;;;;;9.75;3.45;;;26.80;90.50;;;;;;4997190;28;20392;-62
2021/06/14 18:11:04;;;;;;;8.35;3.50;;;26.70;90.90;;;;;;5011752;28;20026;-65
2021/06/14 18:13:30;;;;;;;6.35;3.22;;;26.50;90.90;;;;;;5002030;28;20128;-68
2021/06/14 18:15:55;;;;;;;7.18;3.47;;;26.60;91.70;;;;;;5000565;28;20030;-64
2021/06/14 18:18:21;;;;;;;6.75;3.10;;;26.60;91.30;;;;;;5008352;28;20116;-64
2021/06/14 18:20:47;;;;;;;5.20;3.20;;;26.50;91.30;;;;;;5011196;28;20386;-63
2021/06/14 18:23:13;;;;;;;8.63;3.42;;;26.50;91.70;;;;;;5005131;28;20034;-61
2021/06/14 18:25:38;;;;;;;7.60;3.47;;;26.50;92.10;;;;;;4991777;28;20030;-61
2021/06/14 18:28:04;;;;;;;4.57;2.88;;;26.50;91.30;;;;;;4999231;28;20493;-62
2021/06/14 18:30:33;;;;;;;8.90;3.25;;;26.40;91.00;;;;;;4999230;28;20061;-62
2021/06/14 18:33:19;;;;;;;6.25;3.30;;;26.30;91.20;;;;;;5011670;28;20389;-62
2021/06/14 18:35:47;;;;;;;7.63;3.38;;;26.40;91.00;;;;;;5001863;28;20085;-63
2021/06/14 18:38:20;;;;;;;7.47;3.20;;;26.30;91.50;;;;;;5003246;28;20466;-62
2021/06/14 18:40:54;;;;;;;7.28;3.05;;;26.20;91.00;;;;;;4997983;28;20034;-63
2021/06/14 18:43:21;;;;;;;7.95;3.17;;;26.20;90.90;;;;;;5009597;28;20026;-61
2021/06/14 18:45:47;;;;;;;6.95;2.88;;;26.20;91.10;;;;;;4999824;28;20032;-61
2021/06/14 18:48:14;;;;;;;9.60;3.67;;;26.20;91.10;;;;;;5007860;28;20038;-61
2021/06/14 18:50:40;;;;;;;6.82;3.50;;;26.10;91.30;;;;;;5010825;28;20446;-62
2021/06/14 18:53:07;;;;;;;6.95;3.78;;;26.00;91.30;;;;;;5011130;28;20029;-62
2021/06/14 18:55:33;;;;;;;23.55;21.15;;;25.90;91.30;;;;;;5002256;28;20018;-61
2021/06/14 18:57:59;;;;;;;10.25;4.75;;;25.80;92.00;;;;;;5005180;28;20493;-61
2021/06/14 19:00:25;;;;;;;9.98;4.03;;;25.60;91.80;;;;;;5010845;28;20064;-61
2021/06/14 19:02:51;;;;;;;6.80;3.83;;;25.50;92.20;;;;;;5003836;28;20394;-62
2021/06/14 19:05:19;;;;;;;8.15;4.07;;;25.40;92.50;;;;;;5011796;28;20026;-60
2021/06/14 19:07:46;;;;;;;6.45;3.90;;;25.30;92.90;;;;;;5002911;28;20121;-61
2021/06/14 19:10:14;;;;;;;8.77;3.90;;;25.20;93.10;;;;;;5010534;28;20025;-61
2021/06/14 19:12:40;;;;;;;6.95;3.47;;;25.10;93.60;;;;;;5003076;28;20022;-62
2021/06/14 19:15:06;;;;;;;8.23;3.60;;;24.80;93.60;;;;;;5003083;28;20470;-62
2021/06/14 19:17:34;;;;;;;7.82;3.53;;;24.90;93.90;;;;;;5002494;28;20014;-62
2021/06/14 19:20:00;;;;;;;8.23;3.90;;;24.80;94.10;;;;;;5004326;28;20068;-61
2021/06/14 19:22:27;;;;;;;10.70;4.10;;;24.70;94.30;;;;;;4994876;28;20157;-63
2021/06/14 19:24:53;;;;;;;6.75;3.70;;;24.60;94.50;;;;;;5002436;28;20037;-63
2021/06/14 19:27:18;;;;;;;8.00;3.70;;;24.50;94.60;;;;;;5013844;28;20046;-63
2021/06/14 19:29:44;;;;;;;10.88;4.07;;;24.50;94.60;;;;;;5012804;28;20022;-64
2021/06/14 19:32:12;;;;;;;7.32;4.00;;;24.50;94.40;;;;;;5013782;28;20062;-62
2021/06/14 19:34:41;;;;;;;8.35;4.25;;;24.50;94.50;;;;;;5003231;28;20021;-63
2021/06/14 19:37:07;;;;;;;19.30;13.65;;;24.40;94.20;;;;;;5003804;28;20413;-62
2021/06/14 19:39:35;;;;;;;28.05;21.60;;;24.20;94.50;;;;;;5001395;28;20033;-62
2021/06/14 19:42:00;;;;;;;35.75;25.60;;;24.10;94.40;;;;;;5003179;28;20021;-63
2021/06/14 19:44:26;;;;;;;24.33;16.63;;;24.00;94.50;;;;;;5003458;28;20053;-62
2021/06/14 19:46:52;;;;;;;14.00;6.63;;;23.90;94.50;;;;;;5007093;28;20160;-62
2021/06/14 19:49:17;;;;;;;9.20;5.40;;;23.70;94.30;;;;;;5003388;28;20026;-62
2021/06/14 19:51:43;;;;;;;13.63;6.80;;;23.80;94.50;;;;;;5002585;28;20014;-62
2021/06/14 19:54:09;;;;;;;11.70;6.40;;;23.80;94.50;;;;;;5001482;28;20704;-63
2021/06/14 19:56:35;;;;;;;9.40;4.80;;;23.60;94.70;;;;;;5003405;28;20033;-63
2021/06/14 19:59:02;;;;;;;8.23;4.10;;;23.50;94.80;;;;;;5004271;28;20084;-62
2021/06/14 20:01:28;;;;;;;6.28;4.00;;;23.40;94.90;;;;;;5001955;28;20022;-62